Time;durP1;ratioP1;P1;durP2;ratioP2;P2;SDS_P1;SDS_P2;PMS_P1;PMS_P2;Temp;Humidity;BMP_temperature;BMP_pressure;BME280_temperature;BME280_humidity;BME280_pressure;Samples;Min_cycle;Max_cycle;Signal;HPM_P1;HPM_P2
2023/06/26 00:01:20;;;;;;;7.07;1.70;;;14.60;1.00;;;;;;5031125;28;20047;-71
2023/06/26 00:03:46;;;;;;;10.90;2.17;;;14.60;4.90;;;;;;5031833;28;20029;-72
2023/06/26 00:06:12;;;;;;;10.45;2.45;;;14.60;1.20;;;;;;5031105;28;20057;-74
2023/06/26 00:08:38;;;;;;;4.63;1.83;;;14.50;3.30;;;;;;5031509;28;20064;-73
2023/06/26 00:11:03;;;;;;;6.88;1.83;;;14.60;11.30;;;;;;5031084;28;20030;-72
2023/06/26 00:13:29;;;;;;;6.05;1.67;;;14.50;5.90;;;;;;5030765;28;20360;-73
2023/06/26 00:15:55;;;;;;;7.43;1.70;;;14.50;5.80;;;;;;5031341;28;20101;-73
2023/06/26 00:18:21;;;;;;;4.80;2.00;;;14.60;17.30;;;;;;5030310;28;20034;-71
2023/06/26 00:20:46;;;;;;;5.88;1.38;;;14.60;1.00;;;;;;5031158;28;20132;-73
2023/06/26 00:23:16;;;;;;;6.45;1.77;;;14.50;1.30;;;;;;5029991;28;20035;-73
2023/06/26 00:25:42;;;;;;;5.85;2.03;;;14.50;14.00;;;;;;5033480;28;20458;-73
2023/06/26 00:28:08;;;;;;;6.00;2.00;;;14.40;22.40;;;;;;5050361;28;20380;-74
2023/06/26 00:30:34;;;;;;;6.60;2.03;;;14.40;21.70;;;;;;5050559;28;20090;-74
2023/06/26 00:33:00;;;;;;;7.38;1.70;;;14.30;37.60;;;;;;5050901;28;20032;-74
2023/06/26 00:35:25;;;;;;;7.90;1.90;;;14.30;42.60;;;;;;5050426;28;20623;-74
2023/06/26 00:37:51;;;;;;;6.85;1.58;;;14.30;37.50;;;;;;5050661;28;20029;-74
2023/06/26 00:40:17;;;;;;;6.60;1.95;;;14.20;38.30;;;;;;5050218;28;20130;-74
2023/06/26 00:42:42;;;;;;;5.38;1.90;;;14.30;41.30;;;;;;5051132;28;20025;-72
2023/06/26 00:45:08;;;;;;;5.18;1.63;;;14.30;43.20;;;;;;5050224;28;20391;-75
2023/06/26 00:47:34;;;;;;;7.45;1.60;;;14.20;51.80;;;;;;5050366;28;20063;-74
2023/06/26 00:50:00;;;;;;;6.00;1.50;;;14.20;57.80;;;;;;5050302;28;20086;-73
2023/06/26 00:52:25;;;;;;;6.43;1.77;;;14.20;48.60;;;;;;5050019;28;20025;-73
2023/06/26 00:54:52;;;;;;;8.55;1.88;;;14.20;47.60;;;;;;5050083;28;20564;-73
2023/06/26 00:57:18;;;;;;;10.88;2.03;;;14.20;54.80;;;;;;5049731;28;20024;-73
2023/06/26 00:59:44;;;;;;;5.60;1.50;;;14.30;50.60;;;;;;5050483;28;20090;-73
2023/06/26 01:02:10;;;;;;;9.15;1.75;;;14.30;51.90;;;;;;5049812;28;20028;-74
2023/06/26 01:04:36;;;;;;;6.70;1.80;;;14.20;57.60;;;;;;5050164;28;20025;-73
2023/06/26 01:07:02;;;;;;;10.90;2.20;;;14.20;57.20;;;;;;5050236;28;20029;-73
2023/06/26 01:09:29;;;;;;;6.82;1.73;;;14.20;54.50;;;;;;5049543;28;20698;-73
2023/06/26 01:11:55;;;;;;;6.80;1.98;;;14.20;67.80;;;;;;5050441;28;20037;-73
2023/06/26 01:14:21;;;;;;;6.18;1.75;;;14.20;74.80;;;;;;5049687;28;20029;-74
2023/06/26 01:16:49;;;;;;;8.95;1.88;;;14.20;71.10;;;;;;5050544;28;20082;-73
2023/06/26 01:19:25;;;;;;;14.20;2.00;;;14.20;78.50;;;;;;5049810;28;20075;-74
2023/06/26 01:22:04;;;;;;;8.82;1.92;;;14.20;74.50;;;;;;5050097;28;20067;-73
2023/06/26 01:24:38;;;;;;;8.85;1.98;;;14.10;77.00;;;;;;5049548;28;20108;-74
2023/06/26 01:27:05;;;;;;;8.23;1.60;;;14.10;85.10;;;;;;5049677;28;20044;-73
2023/06/26 01:29:32;;;;;;;6.93;1.70;;;14.10;90.50;;;;;;5050149;28;20119;-74
2023/06/26 01:31:59;;;;;;;4.55;1.52;;;14.10;84.30;;;;;;5050107;28;20032;-73
2023/06/26 01:34:25;;;;;;;7.90;1.80;;;14.10;83.70;;;;;;5050582;28;20435;-73
2023/06/26 01:36:51;;;;;;;11.18;2.08;;;14.10;90.10;;;;;;5054183;28;20071;-73
2023/06/26 01:39:20;;;;;;;9.82;1.80;;;14.10;89.80;;;;;;5053664;28;20516;-74
2023/06/26 01:41:46;;;;;;;8.18;1.70;;;14.10;92.80;;;;;;5054002;28;20091;-73
2023/06/26 01:44:27;;;;;;;6.35;1.65;;;14.00;87.00;;;;;;5053501;28;20075;-75
2023/06/26 01:46:55;;;;;;;11.05;1.85;;;14.00;89.10;;;;;;5053924;28;20483;-73
2023/06/26 01:50:06;;;;;;;9.90;2.10;;;14.00;90.40;;;;;;5052669;28;20025;-74
2023/06/26 01:52:34;;;;;;;6.72;2.03;;;14.00;90.70;;;;;;5051970;28;20482;-73
2023/06/26 01:55:09;;;;;;;9.98;2.25;;;14.00;93.50;;;;;;5053372;28;20025;-74
2023/06/26 01:57:36;;;;;;;5.70;1.70;;;14.00;91.70;;;;;;5053452;28;20037;-74
2023/06/26 02:00:03;;;;;;;4.18;1.75;;;14.00;90.90;;;;;;5053970;28;20021;-73
2023/06/26 02:02:29;;;;;;;8.50;1.75;;;14.00;90.00;;;;;;5051692;28;20032;-74
2023/06/26 02:04:55;;;;;;;7.05;1.92;;;14.00;90.40;;;;;;5053772;28;20079;-73
2023/06/26 02:07:21;;;;;;;8.75;1.92;;;14.00;90.10;;;;;;5052823;28;20056;-74
2023/06/26 02:09:47;;;;;;;7.68;1.88;;;14.00;94.30;;;;;;5053245;28;20102;-73
2023/06/26 02:12:12;;;;;;;6.25;2.08;;;14.00;96.50;;;;;;5052917;28;20021;-74
2023/06/26 02:14:38;;;;;;;7.60;2.22;;;13.90;93.00;;;;;;5052953;28;20043;-73
2023/06/26 02:17:04;;;;;;;11.40;3.00;;;13.90;95.80;;;;;;5053192;28;20415;-73
2023/06/26 02:19:30;;;;;;;8.35;2.20;;;13.80;99.90;;;;;;5052830;28;20029;-73
2023/06/26 02:21:56;;;;;;;4.32;1.70;;;13.80;99.90;;;;;;5052460;28;20021;-73
2023/06/26 02:24:21;;;;;;;9.18;2.22;;;13.80;99.90;;;;;;5052471;28;20104;-74
2023/06/26 02:26:49;;;;;;;14.10;2.38;;;13.70;99.90;;;;;;5052728;28;20036;-73
2023/06/26 02:29:15;;;;;;;7.63;2.00;;;13.70;99.90;;;;;;5052521;28;20045;-75
2023/06/26 02:31:40;;;;;;;7.72;1.73;;;13.70;99.90;;;;;;5051916;28;20029;-73
2023/06/26 02:34:06;;;;;;;8.25;1.65;;;13.70;99.90;;;;;;5051783;28;20040;-73
2023/06/26 02:36:32;;;;;;;9.98;1.75;;;13.70;99.90;;;;;;5051322;28;20029;-73
2023/06/26 02:38:58;;;;;;;8.48;2.28;;;13.70;99.90;;;;;;5051608;28;20032;-73
2023/06/26 02:41:23;;;;;;;10.07;1.73;;;13.70;99.90;;;;;;5050838;28;20025;-73
2023/06/26 02:43:49;;;;;;;8.65;2.20;;;13.80;99.90;;;;;;5051404;28;20453;-73
2023/06/26 02:46:15;;;;;;;12.07;2.20;;;13.70;99.90;;;;;;5050705;28;20025;-75
2023/06/26 02:48:41;;;;;;;12.18;1.92;;;13.70;99.90;;;;;;5051130;28;20371;-73
2023/06/26 02:51:07;;;;;;;6.90;1.67;;;13.70;99.90;;;;;;5051091;28;20108;-73
2023/06/26 02:53:33;;;;;;;7.82;1.85;;;13.80;99.90;;;;;;5049267;28;20064;-74
2023/06/26 02:55:59;;;;;;;9.00;2.22;;;13.70;99.90;;;;;;5051480;28;20361;-74
2023/06/26 02:58:24;;;;;;;8.00;2.10;;;13.70;99.90;;;;;;5050597;28;20059;-74
2023/06/26 03:00:51;;;;;;;7.85;2.10;;;13.70;99.90;;;;;;5049870;28;20032;-73
2023/06/26 03:03:16;;;;;;;9.00;1.60;;;13.70;99.90;;;;;;5050714;28;20103;-74
2023/06/26 03:05:42;;;;;;;6.78;1.90;;;13.60;99.90;;;;;;5051002;28;20064;-73
2023/06/26 03:08:08;;;;;;;6.60;2.10;;;13.50;99.90;;;;;;5051061;28;20029;-73
2023/06/26 03:10:33;;;;;;;7.88;2.10;;;13.60;99.90;;;;;;5049015;28;20039;-74
2023/06/26 03:12:59;;;;;;;8.68;1.80;;;13.60;99.90;;;;;;5050991;28;20405;-73
2023/06/26 03:15:25;;;;;;;8.57;2.10;;;13.70;99.90;;;;;;5050514;28;20029;-74
2023/06/26 03:17:51;;;;;;;9.68;2.08;;;13.70;99.90;;;;;;5050799;28;20028;-73
2023/06/26 03:20:17;;;;;;;7.40;1.65;;;13.60;99.90;;;;;;5050856;28;20214;-74
2023/06/26 03:22:42;;;;;;;9.90;2.10;;;13.60;99.90;;;;;;5050362;28;20043;-73
2023/06/26 03:25:08;;;;;;;4.32;1.48;;;13.60;99.90;;;;;;5051033;28;20037;-73
2023/06/26 03:27:34;;;;;;;6.57;1.88;;;13.50;99.90;;;;;;4999848;28;1430632;-73
2023/06/26 03:29:59;;;;;;;7.75;2.20;;;13.50;99.90;;;;;;5052240;28;20106;-73
2023/06/26 03:32:25;;;;;;;10.27;1.73;;;13.50;99.90;;;;;;5049929;28;20427;-73
2023/06/26 03:34:52;;;;;;;7.65;1.50;;;13.50;99.90;;;;;;5050091;28;20116;-73
2023/06/26 03:37:18;;;;;;;4.70;1.40;;;13.50;99.90;;;;;;5051415;28;20040;-74
2023/06/26 03:39:44;;;;;;;8.35;1.80;;;13.40;99.90;;;;;;5052012;28;20033;-73
2023/06/26 03:42:10;;;;;;;5.45;1.50;;;13.50;99.90;;;;;;5050247;28;20068;-73
2023/06/26 03:44:35;;;;;;;7.07;2.45;;;13.40;99.90;;;;;;5051197;28;20049;-73
2023/06/26 03:47:01;;;;;;;6.18;1.80;;;13.30;99.90;;;;;;5052073;28;20530;-72
2023/06/26 03:49:27;;;;;;;9.35;2.10;;;13.30;99.90;;;;;;5051358;28;20044;-73
2023/06/26 03:51:53;;;;;;;7.55;1.73;;;13.30;99.90;;;;;;5051280;28;20029;-72
2023/06/26 03:54:18;;;;;;;8.07;1.60;;;13.40;99.90;;;;;;5051394;28;20029;-74
2023/06/26 03:56:44;;;;;;;11.68;2.60;;;13.40;99.90;;;;;;5050227;28;20153;-73
2023/06/26 03:59:10;;;;;;;9.05;1.58;;;13.40;99.90;;;;;;5051209;28;20025;-73
2023/06/26 04:01:37;;;;;;;8.57;1.65;;;13.40;99.90;;;;;;5050544;28;20021;-72
2023/06/26 04:04:03;;;;;;;9.02;1.98;;;13.40;99.90;;;;;;5051084;28;20033;-73
2023/06/26 04:06:31;;;;;;;7.07;1.90;;;13.40;99.90;;;;;;5051052;28;20036;-73
2023/06/26 04:08:57;;;;;;;6.07;1.40;;;13.40;99.90;;;;;;5051383;28;20463;-72
2023/06/26 04:11:24;;;;;;;8.80;1.60;;;13.40;99.90;;;;;;5049678;28;20478;-73
2023/06/26 04:13:49;;;;;;;8.90;1.67;;;13.40;99.90;;;;;;5051257;28;20047;-73
2023/06/26 04:16:15;;;;;;;8.98;1.73;;;13.40;99.90;;;;;;5050577;28;20100;-73
2023/06/26 04:18:41;;;;;;;14.30;1.95;;;13.40;99.90;;;;;;5050094;28;20017;-73
2023/06/26 04:21:12;;;;;;;7.13;1.67;;;13.40;99.90;;;;;;5050773;28;20092;-73
2023/06/26 04:23:39;;;;;;;7.00;1.80;;;13.40;99.90;;;;;;5050360;28;20158;-73
2023/06/26 04:26:06;;;;;;;6.95;1.67;;;13.40;99.90;;;;;;5049606;28;20439;-72
2023/06/26 04:28:33;;;;;;;16.77;2.28;;;13.50;99.90;;;;;;5050094;28;20091;-73
2023/06/26 04:31:00;;;;;;;5.63;1.40;;;13.50;99.90;;;;;;5050849;28;20021;-73
2023/06/26 04:33:26;;;;;;;7.15;1.88;;;13.50;99.90;;;;;;5050445;28;20111;-74
2023/06/26 04:35:52;;;;;;;5.65;1.55;;;13.50;99.90;;;;;;5049565;28;20056;-73
2023/06/26 04:38:18;;;;;;;8.45;2.00;;;13.50;99.90;;;;;;5048789;28;20040;-74
2023/06/26 04:40:44;;;;;;;7.88;2.15;;;13.50;99.90;;;;;;5050340;28;20465;-73
2023/06/26 04:43:10;;;;;;;9.48;1.50;;;13.50;99.90;;;;;;5050346;28;20086;-73
2023/06/26 04:45:36;;;;;;;7.20;1.60;;;13.60;99.90;;;;;;5049991;28;20029;-73
2023/06/26 04:48:03;;;;;;;7.38;2.22;;;13.70;99.90;;;;;;5050529;28;20335;-73
2023/06/26 04:50:28;;;;;;;7.38;1.70;;;13.70;99.90;;;;;;5048648;28;20389;-74
2023/06/26 04:52:55;;;;;;;5.75;1.65;;;13.90;99.90;;;;;;5050456;28;20109;-73
2023/06/26 04:55:23;;;;;;;8.80;1.95;;;14.00;99.90;;;;;;5050422;28;20055;-73
2023/06/26 04:57:49;;;;;;;6.55;1.60;;;14.10;99.90;;;;;;5050107;28;20093;-73
2023/06/26 05:00:15;;;;;;;6.18;2.03;;;14.10;99.90;;;;;;5050219;28;20092;-73
2023/06/26 05:02:41;;;;;;;8.23;1.58;;;14.20;99.90;;;;;;5049785;28;20036;-73
2023/06/26 05:05:07;;;;;;;5.13;1.50;;;14.40;99.90;;;;;;5049873;28;20031;-74
2023/06/26 05:07:33;;;;;;;3.95;1.30;;;14.50;99.90;;;;;;5049969;28;20029;-73
2023/06/26 05:09:59;;;;;;;6.97;1.45;;;14.50;99.90;;;;;;5050394;28;20040;-73
2023/06/26 05:12:24;;;;;;;12.95;1.60;;;14.60;99.90;;;;;;5049661;28;20104;-74
2023/06/26 05:14:50;;;;;;;5.35;1.80;;;14.70;99.90;;;;;;5049928;28;20131;-73
2023/06/26 05:17:16;;;;;;;8.82;1.80;;;14.80;99.90;;;;;;5049914;28;20037;-73
2023/06/26 05:19:42;;;;;;;4.78;1.23;;;14.90;99.90;;;;;;5049733;28;20031;-74
2023/06/26 05:22:08;;;;;;;5.10;1.40;;;15.00;99.90;;;;;;5050048;28;20108;-73
2023/06/26 05:24:36;;;;;;;8.25;1.63;;;15.00;99.90;;;;;;5047856;28;20073;-73
2023/06/26 05:27:02;;;;;;;4.78;1.60;;;15.00;99.90;;;;;;5050134;28;20033;-73
2023/06/26 05:29:29;;;;;;;7.60;1.52;;;15.00;99.90;;;;;;5049296;28;20045;-73
2023/06/26 05:31:56;;;;;;;14.85;1.77;;;15.00;99.90;;;;;;5049996;28;20116;-73
2023/06/26 05:34:31;;;;;;;5.47;1.55;;;15.10;99.90;;;;;;5050061;28;20029;-72
2023/06/26 05:37:01;;;;;;;6.35;1.60;;;15.10;99.90;;;;;;5049593;28;20032;-72
2023/06/26 05:39:27;;;;;;;10.02;2.05;;;15.10;99.90;;;;;;5049346;28;20043;-73
2023/06/26 05:41:54;;;;;;;9.60;2.22;;;15.20;99.90;;;;;;5049494;28;20391;-73
2023/06/26 05:44:19;;;;;;;5.78;1.58;;;15.20;99.90;;;;;;5049586;28;20113;-72
2023/06/26 05:46:46;;;;;;;8.45;1.77;;;15.30;99.90;;;;;;5049187;28;20215;-72
2023/06/26 05:49:11;;;;;;;6.07;1.50;;;15.40;99.90;;;;;;5049802;28;20021;-72
2023/06/26 05:51:37;;;;;;;9.10;1.42;;;15.50;99.90;;;;;;5049295;28;20041;-73
2023/06/26 05:54:03;;;;;;;4.55;1.60;;;15.50;99.90;;;;;;5049547;28;20509;-72
2023/06/26 05:56:30;;;;;;;6.80;1.70;;;15.60;99.90;;;;;;5046257;28;20040;-74
2023/06/26 05:58:57;;;;;;;9.48;1.50;;;15.70;99.90;;;;;;5048304;28;20029;-73
2023/06/26 06:01:23;;;;;;;4.45;1.70;;;15.90;50.00;;;;;;5049370;28;20037;-73
2023/06/26 06:03:49;;;;;;;7.80;1.80;;;16.10;39.90;;;;;;5048680;28;20105;-73
2023/06/26 06:06:15;;;;;;;14.73;2.40;;;16.30;24.80;;;;;;5047897;28;20490;-72
2023/06/26 06:08:41;;;;;;;6.63;1.48;;;16.30;1.00;;;;;;5048802;28;20055;-72
2023/06/26 06:11:07;;;;;;;7.65;1.80;;;16.00;1.00;;;;;;5049219;28;20363;-72
2023/06/26 06:13:33;;;;;;;7.53;1.80;;;15.90;1.00;;;;;;5048874;28;20025;-73
2023/06/26 06:15:58;;;;;;;9.20;1.63;;;15.80;1.00;;;;;;5049566;28;20036;-72
2023/06/26 06:18:24;;;;;;;10.63;1.85;;;15.80;9.80;;;;;;5048910;28;20045;-72
2023/06/26 06:20:50;;;;;;;7.93;1.98;;;15.70;27.90;;;;;;5050437;28;20779;-72
2023/06/26 06:23:15;;;;;;;10.18;1.80;;;15.60;37.80;;;;;;5052846;28;20025;-73
2023/06/26 06:25:41;;;;;;;10.32;1.42;;;15.60;30.20;;;;;;5052642;28;20454;-73
2023/06/26 06:28:07;;;;;;;8.07;1.80;;;15.60;23.00;;;;;;5053461;28;20099;-72
2023/06/26 06:30:33;;;;;;;6.72;1.63;;;15.60;33.40;;;;;;5053040;28;20035;-72
2023/06/26 06:32:58;;;;;;;8.18;1.88;;;15.60;34.40;;;;;;5053412;28;20411;-72
2023/06/26 06:35:24;;;;;;;4.95;1.60;;;15.60;39.40;;;;;;5051759;28;20032;-73
2023/06/26 06:37:50;;;;;;;12.35;2.20;;;15.70;31.20;;;;;;5052777;28;20445;-73
2023/06/26 06:40:16;;;;;;;9.25;1.88;;;15.80;40.10;;;;;;5053071;28;20032;-73
2023/06/26 06:42:42;;;;;;;10.85;1.88;;;15.80;26.10;;;;;;5052521;28;20155;-73
2023/06/26 06:45:08;;;;;;;10.48;1.85;;;15.80;55.00;;;;;;5053145;28;20029;-73
2023/06/26 06:47:34;;;;;;;9.55;1.75;;;15.90;43.70;;;;;;5051161;28;20498;-74
2023/06/26 06:50:07;;;;;;;5.18;1.75;;;16.00;29.10;;;;;;5053413;28;20023;-73
2023/06/26 06:52:37;;;;;;;7.15;1.52;;;15.90;40.70;;;;;;5052446;28;20033;-74
2023/06/26 06:55:08;;;;;;;14.65;2.35;;;16.00;34.30;;;;;;5052985;28;20060;-73
2023/06/26 06:57:37;;;;;;;6.97;1.27;;;15.90;26.40;;;;;;5052280;28;20095;-73
2023/06/26 07:00:11;;;;;;;8.93;1.85;;;15.90;28.90;;;;;;5052504;28;20017;-73
2023/06/26 07:02:38;;;;;;;9.38;1.80;;;16.10;38.60;;;;;;5052224;28;20340;-74
2023/06/26 07:05:04;;;;;;;6.28;1.60;;;16.10;18.60;;;;;;5051444;28;20021;-73
2023/06/26 07:07:31;;;;;;;4.32;1.48;;;16.20;25.00;;;;;;5052689;28;20033;-73
2023/06/26 07:10:03;;;;;;;6.97;1.33;;;16.30;22.90;;;;;;5051383;28;20033;-73
2023/06/26 07:12:28;;;;;;;8.07;2.15;;;16.30;1.00;;;;;;5052794;28;20102;-73
2023/06/26 07:14:55;;;;;;;8.27;1.45;;;16.20;1.00;;;;;;5052326;28;20083;-74
2023/06/26 07:17:21;;;;;;;7.40;2.50;;;16.30;1.00;;;;;;5050688;28;20043;-73
2023/06/26 07:19:47;;;;;;;6.22;1.95;;;16.50;1.00;;;;;;5051353;28;20025;-74
2023/06/26 07:22:13;;;;;;;7.30;1.52;;;16.50;1.00;;;;;;5052179;28;20051;-72
2023/06/26 07:24:39;;;;;;;4.30;1.50;;;16.60;1.00;;;;;;5050365;28;20467;-74
2023/06/26 07:27:05;;;;;;;6.65;1.67;;;16.50;1.00;;;;;;5052035;28;20043;-73
2023/06/26 07:29:31;;;;;;;13.05;1.77;;;16.60;1.00;;;;;;5051623;28;20079;-73
2023/06/26 07:31:56;;;;;;;5.63;1.70;;;16.80;1.00;;;;;;5050507;28;20114;-74
2023/06/26 07:34:22;;;;;;;7.65;1.83;;;17.00;1.00;;;;;;5052028;28;20021;-73
2023/06/26 07:36:48;;;;;;;6.05;1.60;;;17.20;1.00;;;;;;5051472;28;20037;-73
2023/06/26 07:39:13;;;;;;;7.38;1.80;;;17.50;1.00;;;;;;5051809;28;20025;-74
2023/06/26 07:41:39;;;;;;;6.50;1.48;;;17.50;1.00;;;;;;5050959;28;20032;-74
2023/06/26 07:44:05;;;;;;;5.18;1.58;;;17.70;1.00;;;;;;5051975;28;20051;-74
2023/06/26 07:46:31;;;;;;;6.20;1.60;;;17.60;99.90;;;;;;5051722;28;20029;-74
2023/06/26 07:48:56;;;;;;;9.45;1.67;;;17.90;1.00;;;;;;5049901;28;20139;-73
2023/06/26 07:51:22;;;;;;;7.40;1.63;;;18.00;1.00;;;;;;5051376;28;20375;-73
2023/06/26 07:53:48;;;;;;;6.15;1.77;;;18.10;1.00;;;;;;5051336;28;20025;-74
2023/06/26 07:56:13;;;;;;;8.70;1.83;;;18.10;52.60;;;;;;5051537;28;20086;-74
2023/06/26 07:58:39;;;;;;;10.30;2.10;;;18.20;99.90;;;;;;5051230;28;20029;-75
2023/06/26 08:01:05;;;;;;;11.30;1.90;;;18.30;99.90;;;;;;5047494;28;20033;-74
2023/06/26 08:03:30;;;;;;;4.80;1.60;;;18.50;99.90;;;;;;5035963;28;20341;-73
2023/06/26 08:05:57;;;;;;;8.32;1.80;;;18.50;99.90;;;;;;5031245;28;20573;-74
2023/06/26 08:08:22;;;;;;;15.35;2.10;;;18.70;99.90;;;;;;5031528;28;20075;-73
2023/06/26 08:10:48;;;;;;;8.95;1.90;;;18.90;99.90;;;;;;5031067;28;20084;-73
2023/06/26 08:13:14;;;;;;;9.82;1.80;;;19.00;99.90;;;;;;5031811;28;20476;-74
2023/06/26 08:15:39;;;;;;;9.50;1.92;;;18.90;99.90;;;;;;5030916;28;20159;-74
2023/06/26 08:18:05;;;;;;;9.30;1.80;;;18.70;99.90;;;;;;5031555;28;20033;-74
2023/06/26 08:20:31;;;;;;;10.13;1.92;;;18.40;99.90;;;;;;5031986;28;20064;-74
2023/06/26 08:22:57;;;;;;;9.85;1.77;;;18.40;99.90;;;;;;5031721;28;20164;-74
2023/06/26 08:25:22;;;;;;;8.93;1.60;;;18.30;99.90;;;;;;5032108;28;20427;-74
2023/06/26 08:27:48;;;;;;;9.38;2.08;;;18.30;99.90;;;;;;5030984;28;20145;-74
2023/06/26 08:30:14;;;;;;;7.35;1.67;;;18.40;99.90;;;;;;5031217;28;20209;-74
2023/06/26 08:32:40;;;;;;;10.85;2.25;;;18.40;99.90;;;;;;5030052;28;20083;-75
2023/06/26 08:35:10;;;;;;;9.63;1.95;;;18.60;99.90;;;;;;5030748;28;20036;-74
2023/06/26 08:37:35;;;;;;;11.32;2.00;;;18.70;99.90;;;;;;5030283;28;20375;-74
2023/06/26 08:40:01;;;;;;;10.30;2.35;;;18.90;99.90;;;;;;5037076;28;20021;-73
2023/06/26 08:42:27;;;;;;;9.95;1.83;;;19.00;99.90;;;;;;5050513;28;20024;-74
2023/06/26 08:44:53;;;;;;;6.70;1.50;;;19.00;99.90;;;;;;5049902;28;20166;-73
2023/06/26 08:47:19;;;;;;;10.30;1.63;;;19.10;99.90;;;;;;5050452;28;20033;-74
2023/06/26 08:50:04;;;;;;;12.77;1.77;;;19.30;99.90;;;;;;5050246;28;20044;-75
2023/06/26 08:52:35;;;;;;;8.02;2.00;;;19.40;99.90;;;;;;5050053;28;20025;-76
2023/06/26 08:55:06;;;;;;;7.32;1.67;;;19.50;99.90;;;;;;5050076;28;20079;-76
2023/06/26 08:57:32;;;;;;;8.82;2.10;;;19.60;99.90;;;;;;5048683;28;20120;-76
2023/06/26 08:59:58;;;;;;;8.07;1.90;;;19.60;99.90;;;;;;5050020;28;20368;-76
2023/06/26 09:02:25;;;;;;;8.05;1.75;;;19.40;99.90;;;;;;5049907;28;20029;-76
2023/06/26 09:04:51;;;;;;;7.75;1.70;;;19.30;99.90;;;;;;5049865;28;20110;-79
2023/06/26 09:07:17;;;;;;;6.82;1.73;;;19.10;99.90;;;;;;5050307;28;20028;-74
2023/06/26 09:09:43;;;;;;;8.60;1.73;;;18.90;99.90;;;;;;5049087;28;20032;-74
2023/06/26 09:12:09;;;;;;;7.93;1.60;;;18.90;99.90;;;;;;5049276;28;20033;-74
2023/06/26 09:14:36;;;;;;;6.75;1.75;;;18.90;99.90;;;;;;5049259;28;20067;-74
2023/06/26 09:17:02;;;;;;;8.00;1.67;;;18.80;99.90;;;;;;5048701;28;20485;-74
2023/06/26 09:19:28;;;;;;;11.65;2.40;;;18.70;99.90;;;;;;5047428;28;20030;-74
2023/06/26 09:21:54;;;;;;;8.68;1.95;;;18.70;99.90;;;;;;5048327;28;20036;-74
2023/06/26 09:24:22;;;;;;;7.00;1.95;;;18.90;99.90;;;;;;5049020;28;20077;-73
2023/06/26 09:26:49;;;;;;;6.78;1.85;;;19.20;99.90;;;;;;5049267;28;20045;-74
2023/06/26 09:29:17;;;;;;;8.07;2.15;;;19.30;99.90;;;;;;5048865;28;20087;-74
2023/06/26 09:31:44;;;;;;;8.10;1.85;;;19.40;99.90;;;;;;5048787;28;20485;-74
2023/06/26 09:34:10;;;;;;;11.57;2.00;;;19.50;99.90;;;;;;5048571;28;20051;-74
2023/06/26 09:36:36;;;;;;;9.07;1.85;;;19.50;99.90;;;;;;5048806;28;20339;-73
2023/06/26 09:39:10;;;;;;;8.07;1.65;;;19.70;99.90;;;;;;5048443;28;20029;-74
2023/06/26 09:41:40;;;;;;;5.25;1.75;;;19.60;99.90;;;;;;5048622;28;20048;-74
2023/06/26 09:44:07;;;;;;;9.70;2.20;;;19.50;99.90;;;;;;5047014;28;20067;-74
2023/06/26 09:46:33;;;;;;;9.07;1.88;;;19.40;99.90;;;;;;5048630;28;20367;-72
2023/06/26 09:49:06;;;;;;;8.95;1.67;;;19.40;99.90;;;;;;5048436;28;20029;-74
2023/06/26 09:51:34;;;;;;;5.03;1.52;;;19.40;99.90;;;;;;5048639;28;20115;-73
2023/06/26 09:54:03;;;;;;;6.60;1.83;;;19.70;99.90;;;;;;5048105;28;20041;-74
2023/06/26 09:56:30;;;;;;;8.68;1.83;;;20.00;99.90;;;;;;5051363;28;20049;-74
2023/06/26 09:58:57;;;;;;;6.25;1.63;;;20.20;99.90;;;;;;5051889;28;20104;-75
2023/06/26 10:01:23;;;;;;;6.25;1.67;;;20.30;1.00;;;;;;5052532;28;20024;-72
2023/06/26 10:03:49;;;;;;;8.38;2.00;;;20.40;1.00;;;;;;5051843;28;20110;-74
2023/06/26 10:06:36;;;;;;;4.47;1.35;;;20.30;99.90;;;;;;5052319;28;20029;-72
2023/06/26 10:09:06;;;;;;;6.13;1.27;;;20.10;47.50;;;;;;5052043;28;20021;-72
2023/06/26 10:12:01;;;;;;;5.22;1.48;;;19.80;99.90;;;;;;5052386;28;20346;-74
2023/06/26 10:14:31;;;;;;;6.68;1.77;;;19.90;99.90;;;;;;5053099;28;20132;-72
2023/06/26 10:16:59;;;;;;;5.85;1.25;;;20.20;46.90;;;;;;5051561;28;20033;-73
2023/06/26 10:19:27;;;;;;;2.78;1.50;;;20.20;1.00;;;;;;5052247;28;20037;-72
2023/06/26 10:21:54;;;;;;;8.73;1.10;;;20.40;29.50;;;;;;5051673;28;20110;-73
2023/06/26 10:24:22;;;;;;;5.80;1.50;;;20.40;1.00;;;;;;5051927;28;20029;-72
2023/06/26 10:26:52;;;;;;;5.43;1.50;;;20.50;1.00;;;;;;5051893;28;20028;-73
2023/06/26 10:29:22;;;;;;;5.40;1.30;;;20.40;99.90;;;;;;5052348;28;20059;-73
2023/06/26 10:31:52;;;;;;;4.43;1.42;;;20.40;99.90;;;;;;5051335;28;20029;-74
2023/06/26 10:34:18;;;;;;;4.60;1.55;;;20.30;99.90;;;;;;5051867;28;20029;-73
2023/06/26 10:36:44;;;;;;;8.13;1.52;;;20.30;99.90;;;;;;5051894;28;20044;-73
2023/06/26 10:39:09;;;;;;;6.22;1.70;;;20.00;99.90;;;;;;5051223;28;20028;-73
2023/06/26 10:41:43;;;;;;;7.03;1.60;;;19.50;99.90;;;;;;5051847;28;20025;-73
2023/06/26 10:44:11;;;;;;;8.15;1.60;;;18.80;1.00;;;;;;5051502;28;20031;-74
2023/06/26 10:46:49;;;;;;;2.92;1.10;;;18.40;99.90;;;;;;5051849;28;20446;-74
2023/06/26 10:49:15;;;;;;;8.85;1.58;;;18.10;99.90;;;;;;5051535;28;20065;-75
2023/06/26 10:51:49;;;;;;;6.28;1.65;;;17.90;1.00;;;;;;5051444;28;20141;-74
2023/06/26 10:54:16;;;;;;;3.78;1.45;;;17.80;1.00;;;;;;5051662;28;20127;-74
2023/06/26 10:56:56;;;;;;;5.15;1.58;;;17.80;1.00;;;;;;5051286;28;20048;-74
2023/06/26 10:59:26;;;;;;;8.43;1.45;;;17.90;1.00;;;;;;5049882;28;20061;-75
2023/06/26 11:02:04;;;;;;;7.90;1.85;;;17.90;1.00;;;;;;5051092;28;20029;-73
2023/06/26 11:04:40;;;;;;;8.15;1.67;;;18.00;1.00;;;;;;5050146;28;20468;-74
2023/06/26 11:07:18;;;;;;;7.18;1.40;;;18.20;1.00;;;;;;5050375;28;20822;-73
2023/06/26 11:10:07;;;;;;;5.28;1.33;;;18.60;1.00;;;;;;5051604;28;20477;-74
2023/06/26 11:12:43;;;;;;;4.97;1.27;;;18.80;1.00;;;;;;5044646;28;20139;-73
2023/06/26 11:15:13;;;;;;;4.07;1.30;;;19.00;1.00;;;;;;5051027;28;20915;-73
2023/06/26 11:17:41;;;;;;;5.38;1.30;;;19.00;99.90;;;;;;5051420;28;20060;-74
2023/06/26 11:20:09;;;;;;;8.38;1.60;;;19.00;99.90;;;;;;5051273;28;20039;-72
2023/06/26 11:22:36;;;;;;;6.75;1.60;;;19.00;99.90;;;;;;5051083;28;20028;-73
2023/06/26 11:25:03;;;;;;;7.80;1.50;;;19.00;99.90;;;;;;5050955;28;20033;-74
2023/06/26 11:27:38;;;;;;;9.02;1.88;;;19.00;99.90;;;;;;5051575;28;20087;-74
2023/06/26 11:30:08;;;;;;;5.93;1.38;;;19.10;1.00;;;;;;5050925;28;20076;-75
2023/06/26 11:32:36;;;;;;;7.97;1.60;;;19.30;99.90;;;;;;5051237;28;20029;-75
2023/06/26 11:35:01;;;;;;;5.82;1.80;;;19.40;87.70;;;;;;5050627;28;20095;-73
2023/06/26 11:37:27;;;;;;;4.22;1.33;;;19.40;99.90;;;;;;5050969;28;20127;-74
2023/06/26 11:39:53;;;;;;;5.68;1.60;;;19.30;99.90;;;;;;5050997;28;20455;-74
2023/06/26 11:42:20;;;;;;;6.80;1.75;;;19.50;99.90;;;;;;5051771;28;20024;-74
2023/06/26 11:44:46;;;;;;;2.83;1.60;;;19.50;99.90;;;;;;5051521;28;20071;-70
2023/06/26 11:47:19;;;;;;;3.92;1.55;;;19.30;99.90;;;;;;5051295;28;20040;-73
2023/06/26 11:49:49;;;;;;;4.80;1.40;;;19.50;99.90;;;;;;5051414;28;20180;-72
2023/06/26 11:52:16;;;;;;;7.03;1.65;;;19.60;1.00;;;;;;5051539;28;20033;-74
2023/06/26 11:54:42;;;;;;;6.47;1.75;;;19.70;99.90;;;;;;5051508;28;20135;-73
2023/06/26 11:57:13;;;;;;;4.90;1.50;;;19.80;1.00;;;;;;5050952;28;20029;-73
2023/06/26 11:59:40;;;;;;;6.70;1.42;;;19.80;1.00;;;;;;5051809;28;20120;-73
2023/06/26 12:02:11;;;;;;;5.65;1.52;;;19.90;99.90;;;;;;5051054;28;20423;-74
2023/06/26 12:04:41;;;;;;;8.02;1.77;;;19.90;35.70;;;;;;5051685;28;20029;-74
2023/06/26 12:07:09;;;;;;;4.82;1.48;;;19.70;99.90;;;;;;5051456;28;20052;-74
2023/06/26 12:09:43;;;;;;;5.97;1.60;;;19.80;1.00;;;;;;5051635;28;20039;-74
2023/06/26 12:12:10;;;;;;;3.63;1.10;;;19.80;99.90;;;;;;5051154;28;20083;-74
2023/06/26 12:14:37;;;;;;;6.88;1.48;;;19.90;1.00;;;;;;5051169;28;20485;-74
2023/06/26 12:17:10;;;;;;;7.97;2.00;;;19.80;99.90;;;;;;5051136;28;20036;-74
2023/06/26 12:19:49;;;;;;;3.95;1.42;;;20.00;1.00;;;;;;5050741;28;20021;-74
2023/06/26 12:22:16;;;;;;;4.72;1.50;;;20.20;99.90;;;;;;5051175;28;20115;-74
2023/06/26 12:24:43;;;;;;;3.13;1.30;;;20.20;99.90;;;;;;5051563;28;20060;-74
2023/06/26 12:27:10;;;;;;;5.22;1.10;;;20.20;1.00;;;;;;5050956;28;20037;-74
2023/06/26 12:29:38;;;;;;;5.35;1.27;;;20.20;99.90;;;;;;5050806;28;20049;-74
2023/06/26 12:32:05;;;;;;;6.63;2.17;;;20.10;99.90;;;;;;5050650;28;20143;-74
2023/06/26 12:34:33;;;;;;;2.67;1.05;;;20.00;99.90;;;;;;5050913;28;20116;-74
2023/06/26 12:37:10;;;;;;;4.68;1.27;;;20.20;1.00;;;;;;5050499;28;20029;-75
2023/06/26 12:40:16;;;;;;;3.88;1.30;;;20.20;99.90;;;;;;5050742;28;20068;-75
2023/06/26 12:42:42;;;;;;;4.70;1.20;;;20.20;99.90;;;;;;5041336;28;20445;-75
2023/06/26 12:45:12;;;;;;;4.40;1.23;;;20.10;99.90;;;;;;5049307;28;20021;-75
2023/06/26 12:47:40;;;;;;;3.70;1.63;;;20.20;99.90;;;;;;5050298;28;20048;-75
2023/06/26 12:50:07;;;;;;;6.05;1.30;;;20.30;99.90;;;;;;5050376;28;20359;-75